createdAt,value
2019-04-06T00:00:05.226Z,9.31
2019-04-06T00:01:05.616Z,9.25
2019-04-06T00:02:05.938Z,9.25
2019-04-06T00:03:06.045Z,9.25
2019-04-06T00:04:05.049Z,9.19
2019-04-06T00:05:05.682Z,9.19
2019-04-06T00:06:05.538Z,9.19
2019-04-06T00:07:05.711Z,9.19
2019-04-06T00:08:05.541Z,9.12
2019-04-06T00:09:05.611Z,9.12
2019-04-06T00:10:05.784Z,9.19
2019-04-06T00:11:06.022Z,9.31
2019-04-06T00:12:05.219Z,9.25
2019-04-06T00:13:05.478Z,9.06
2019-04-06T00:14:05.563Z,9.00
2019-04-06T00:15:05.714Z,9.06
2019-04-06T00:16:05.766Z,9.06
2019-04-06T00:17:05.950Z,9.12
2019-04-06T00:18:06.020Z,9.19
2019-04-06T00:19:05.058Z,9.19
2019-04-06T00:20:05.224Z,9.19
2019-04-06T00:21:05.927Z,9.19
2019-04-06T00:22:05.250Z,9.25
2019-04-06T00:23:05.634Z,9.25
2019-04-06T00:24:05.700Z,9.31
2019-04-06T00:25:06.040Z,9.31
2019-04-06T00:26:06.029Z,9.44
2019-04-06T00:27:05.400Z,9.50
2019-04-06T00:28:05.848Z,9.44
2019-04-06T00:29:06.041Z,9.50
2019-04-06T00:30:05.116Z,9.56
2019-04-06T00:31:05.779Z,9.69
2019-04-06T00:32:05.943Z,9.75
2019-04-06T00:33:05.878Z,9.81
2019-04-06T00:34:05.939Z,9.75
2019-04-06T00:35:06.045Z,9.88
2019-04-06T00:36:05.051Z,9.88
2019-04-06T00:37:05.809Z,9.88
2019-04-06T00:38:05.862Z,9.88
2019-04-06T00:39:05.185Z,9.94
2019-04-06T00:40:05.463Z,10.00
2019-04-06T00:41:05.488Z,9.94
2019-04-06T00:42:05.625Z,10.00
2019-04-06T00:43:05.895Z,10.00
2019-04-06T00:44:06.030Z,10.00
2019-04-06T00:45:05.216Z,9.94
2019-04-06T00:46:05.458Z,9.88
2019-04-06T00:47:05.464Z,9.81
2019-04-06T00:48:05.603Z,9.88
2019-04-06T00:49:05.619Z,9.81
2019-04-06T00:50:05.860Z,9.75
2019-04-06T00:51:05.955Z,9.88
2019-04-06T00:52:05.946Z,9.81
2019-04-06T00:53:05.308Z,9.81
2019-04-06T00:54:05.521Z,9.69
2019-04-06T00:55:05.769Z,9.69
2019-04-06T00:56:05.929Z,9.75
2019-04-06T00:57:05.067Z,9.75
2019-04-06T00:58:05.809Z,9.62
2019-04-06T00:59:05.068Z,9.56
2019-04-06T01:00:05.608Z,9.56
2019-04-06T01:01:05.889Z,9.62
2019-04-06T01:02:06.013Z,9.56
2019-04-06T01:03:06.107Z,9.62
2019-04-06T01:04:05.044Z,9.69
2019-04-06T01:05:05.641Z,9.69
2019-04-06T01:06:05.814Z,9.75
2019-04-06T01:07:05.387Z,9.75
2019-04-06T01:08:05.364Z,9.69
2019-04-06T01:09:05.481Z,9.69
2019-04-06T01:10:05.618Z,9.75
2019-04-06T01:11:05.791Z,9.75
2019-04-06T01:12:06.102Z,9.62
2019-04-06T01:13:05.123Z,9.62
2019-04-06T01:14:05.389Z,9.56
2019-04-06T01:15:05.442Z,9.50
2019-04-06T01:16:05.235Z,9.50
2019-04-06T01:17:05.636Z,9.50
2019-04-06T01:18:05.713Z,9.56
2019-04-06T01:19:05.223Z,9.56
2019-04-06T01:20:05.926Z,9.50
2019-04-06T01:21:05.155Z,9.56
2019-04-06T01:22:05.793Z,9.56
2019-04-06T01:23:06.017Z,9.56
2019-04-06T01:24:06.025Z,9.44
2019-04-06T01:25:05.224Z,9.38
2019-04-06T01:26:07.272Z,9.44
2019-04-06T01:27:05.765Z,9.50
2019-04-06T01:28:05.216Z,9.50
2019-04-06T01:29:05.438Z,9.50
2019-04-06T01:30:05.721Z,9.38
2019-04-06T01:31:05.878Z,9.38
2019-04-06T01:32:06.915Z,9.38
2019-04-06T01:33:05.233Z,9.38
2019-04-06T01:34:05.369Z,9.38
2019-04-06T01:35:05.547Z,9.38
2019-04-06T01:36:05.528Z,9.38
2019-04-06T01:37:05.743Z,9.44
2019-04-06T01:38:05.851Z,9.44
2019-04-06T01:39:05.402Z,9.44
2019-04-06T01:40:05.078Z,9.56
2019-04-06T01:41:05.559Z,9.50
2019-04-06T01:42:05.462Z,9.56
2019-04-06T01:43:05.622Z,9.50
2019-04-06T01:44:05.447Z,9.56
2019-04-06T01:45:05.544Z,9.56
2019-04-06T01:46:05.830Z,9.62
2019-04-06T01:47:06.039Z,9.69
2019-04-06T01:48:05.209Z,9.62
2019-04-06T01:49:05.406Z,9.56
2019-04-06T01:50:05.447Z,9.56
2019-04-06T01:51:05.643Z,9.50
2019-04-06T01:52:05.609Z,9.44
2019-04-06T01:53:05.714Z,9.44
2019-04-06T01:54:05.942Z,9.44
2019-04-06T01:55:05.071Z,9.44
2019-04-06T01:56:05.860Z,9.38
2019-04-06T01:57:05.234Z,9.38
2019-04-06T01:58:05.373Z,9.31
2019-04-06T01:59:05.532Z,9.25
2019-04-06T02:00:05.875Z,9.25
2019-04-06T02:01:05.235Z,9.25
2019-04-06T02:02:05.391Z,9.31
2019-04-06T02:03:05.935Z,9.31
2019-04-06T02:04:05.946Z,9.25
2019-04-06T02:05:06.108Z,9.25
2019-04-06T02:06:05.285Z,9.31
2019-04-06T02:07:05.763Z,9.31
2019-04-06T02:08:05.211Z,9.31
2019-04-06T02:09:05.390Z,9.31
2019-04-06T02:10:05.531Z,9.25
2019-04-06T02:11:05.772Z,9.19
2019-04-06T02:12:05.059Z,9.25
2019-04-06T02:13:06.013Z,9.25
2019-04-06T02:14:06.004Z,9.25
2019-04-06T02:15:06.094Z,9.19
2019-04-06T02:16:05.231Z,9.19
2019-04-06T02:17:05.383Z,9.12
2019-04-06T02:18:06.048Z,9.06
2019-04-06T02:19:05.784Z,9.06
2019-04-06T02:20:05.770Z,9.06
2019-04-06T02:21:05.935Z,9.12
2019-04-06T02:22:06.103Z,9.12
2019-04-06T02:23:05.237Z,9.12
2019-04-06T02:24:05.130Z,9.19
2019-04-06T02:25:05.301Z,9.12
2019-04-06T02:26:05.764Z,9.12
2019-04-06T02:27:06.147Z,9.06
2019-04-06T02:28:06.086Z,9.06
2019-04-06T02:29:05.288Z,9.06
2019-04-06T02:30:05.450Z,9.12
2019-04-06T02:31:05.626Z,9.12
2019-04-06T02:32:05.785Z,9.12
2019-04-06T02:33:06.166Z,9.12
2019-04-06T02:34:06.096Z,9.19
2019-04-06T02:35:05.310Z,9.19
2019-04-06T02:36:05.536Z,9.25
2019-04-06T02:37:05.761Z,9.31
2019-04-06T02:38:06.030Z,9.25
2019-04-06T02:39:06.265Z,9.25
2019-04-06T02:40:07.672Z,9.31
2019-04-06T02:41:06.037Z,9.38
2019-04-06T02:42:05.201Z,9.31
2019-04-06T02:43:05.297Z,9.31
2019-04-06T02:44:07.117Z,9.31
2019-04-06T02:45:05.455Z,9.19
2019-04-06T02:46:05.929Z,9.19
2019-04-06T02:47:05.216Z,9.06
2019-04-06T02:48:05.396Z,9.00
2019-04-06T02:49:05.823Z,9.06
2019-04-06T02:50:06.024Z,9.12
2019-04-06T02:51:05.210Z,9.19
2019-04-06T02:52:05.476Z,9.19
2019-04-06T02:53:05.617Z,9.25
2019-04-06T02:54:05.778Z,9.31
2019-04-06T02:55:06.209Z,9.38
2019-04-06T02:56:05.293Z,9.38
2019-04-06T02:57:05.843Z,9.38
2019-04-06T02:58:05.392Z,9.38
2019-04-06T02:59:05.895Z,9.44
2019-04-06T03:00:05.150Z,9.44
2019-04-06T03:01:06.185Z,9.44
2019-04-06T03:02:05.619Z,9.44
2019-04-06T03:03:05.688Z,9.44
2019-04-06T03:04:05.853Z,9.56
2019-04-06T03:05:06.027Z,9.62
2019-04-06T03:06:05.463Z,9.62
2019-04-06T03:07:05.545Z,9.56
2019-04-06T03:08:06.029Z,9.56
2019-04-06T03:09:05.968Z,9.56
2019-04-06T03:10:06.013Z,9.62
2019-04-06T03:11:05.470Z,9.62
2019-04-06T03:12:05.460Z,9.56
2019-04-06T03:13:05.679Z,9.56
2019-04-06T03:14:06.124Z,9.44
2019-04-06T03:15:05.944Z,9.44
2019-04-06T03:16:05.480Z,9.44
2019-04-06T03:17:05.525Z,9.56
2019-04-06T03:18:05.704Z,9.75
2019-04-06T03:19:06.017Z,9.81
2019-04-06T03:20:05.221Z,9.75
2019-04-06T03:21:06.034Z,9.75
2019-04-06T03:22:05.075Z,9.75
2019-04-06T03:23:05.795Z,9.69
2019-04-06T03:24:05.888Z,9.62
2019-04-06T03:25:05.295Z,9.62
2019-04-06T03:26:05.937Z,9.62
2019-04-06T03:27:05.234Z,9.62
2019-04-06T03:28:05.290Z,9.62
2019-04-06T03:29:05.050Z,9.62
2019-04-06T03:30:05.874Z,9.62
2019-04-06T03:31:05.532Z,9.69
2019-04-06T03:32:05.391Z,9.75
2019-04-06T03:33:05.703Z,9.69
2019-04-06T03:34:06.092Z,9.81
2019-04-06T03:35:05.174Z,9.75
2019-04-06T03:36:05.607Z,9.69
2019-04-06T03:37:05.525Z,9.56
2019-04-06T03:38:05.537Z,9.56
2019-04-06T03:39:05.817Z,9.50
2019-04-06T03:40:05.776Z,9.50
2019-04-06T03:41:05.164Z,9.56
2019-04-06T03:42:05.210Z,9.56
2019-04-06T03:43:05.498Z,9.62
2019-04-06T03:44:06.132Z,9.69
2019-04-06T03:45:05.311Z,9.69
2019-04-06T03:46:05.557Z,9.75
2019-04-06T03:47:05.614Z,9.75
2019-04-06T03:48:05.907Z,9.69
2019-04-06T03:49:05.945Z,9.62
2019-04-06T03:50:05.219Z,9.62
2019-04-06T03:51:05.517Z,9.50
2019-04-06T03:52:06.386Z,9.50
2019-04-06T03:53:05.375Z,9.44
2019-04-06T03:54:05.698Z,9.38
2019-04-06T03:55:05.920Z,9.44
2019-04-06T03:56:05.206Z,9.44
2019-04-06T03:57:14.324Z,9.50
2019-04-06T03:58:05.318Z,9.56
2019-04-06T03:59:05.534Z,9.50
2019-04-06T04:00:05.700Z,9.44
2019-04-06T04:01:05.990Z,9.38
2019-04-06T04:02:05.938Z,9.38
2019-04-06T04:03:05.995Z,9.38
2019-04-06T04:04:05.861Z,9.38
2019-04-06T04:05:05.212Z,9.31
2019-04-06T04:06:05.460Z,9.25
2019-04-06T04:07:05.867Z,9.12
2019-04-06T04:08:06.029Z,9.12
2019-04-06T04:09:05.451Z,9.12
2019-04-06T04:10:05.698Z,9.12
2019-04-06T04:11:05.921Z,8.94
2019-04-06T04:12:05.153Z,8.94
2019-04-06T04:13:06.169Z,8.88
2019-04-06T04:14:05.545Z,8.94
2019-04-06T04:15:05.553Z,9.00
2019-04-06T04:16:05.780Z,9.00
2019-04-06T04:17:06.094Z,9.12
2019-04-06T04:18:06.197Z,9.06
2019-04-06T04:19:05.071Z,9.19
2019-04-06T04:20:05.451Z,9.19
2019-04-06T04:21:05.616Z,9.12
2019-04-06T04:22:05.931Z,9.00
2019-04-06T04:23:05.381Z,8.94
2019-04-06T04:24:05.537Z,8.94
2019-04-06T04:25:06.004Z,9.00
2019-04-06T04:26:05.427Z,9.00
2019-04-06T04:27:05.626Z,9.06
2019-04-06T04:28:06.009Z,9.19
2019-04-06T04:29:05.368Z,9.38
2019-04-06T04:30:05.543Z,9.31
2019-04-06T04:31:05.707Z,9.31
2019-04-06T04:32:05.944Z,9.38
2019-04-06T04:33:06.093Z,9.44
2019-04-06T04:34:05.176Z,9.25
2019-04-06T04:35:05.354Z,9.25
2019-04-06T04:36:05.857Z,9.25
2019-04-06T04:37:05.841Z,9.12
2019-04-06T04:38:05.023Z,9.12
2019-04-06T04:39:05.299Z,9.25
2019-04-06T04:40:05.646Z,9.12
2019-04-06T04:41:05.717Z,9.00
2019-04-06T04:42:06.102Z,8.94
2019-04-06T04:43:05.664Z,9.06
2019-04-06T04:44:05.329Z,9.06
2019-04-06T04:45:06.015Z,9.06
2019-04-06T04:46:05.364Z,9.06
2019-04-06T04:47:06.178Z,9.06
2019-04-06T04:48:06.022Z,9.06
2019-04-06T04:49:05.218Z,9.06
2019-04-06T04:50:05.454Z,9.06
2019-04-06T04:51:05.525Z,9.06
2019-04-06T04:52:06.003Z,9.06
2019-04-06T04:53:05.985Z,9.06
2019-04-06T04:54:05.300Z,9.12
2019-04-06T04:55:07.576Z,9.06
2019-04-06T04:56:05.320Z,8.94
2019-04-06T04:57:05.177Z,8.81
2019-04-06T04:58:05.851Z,8.69
2019-04-06T04:59:05.195Z,8.69
2019-04-06T05:00:05.776Z,8.88
2019-04-06T05:01:05.293Z,8.94
2019-04-06T05:02:05.808Z,9.00
2019-04-06T05:03:05.564Z,9.06
2019-04-06T05:04:05.582Z,8.94
2019-04-06T05:05:09.254Z,8.75
2019-04-06T05:06:05.885Z,8.62
2019-04-06T05:07:05.939Z,8.56
2019-04-06T05:08:05.206Z,8.44
2019-04-06T05:09:07.344Z,8.38
2019-04-06T05:10:05.966Z,8.31
2019-04-06T05:11:05.310Z,8.19
2019-04-06T05:12:05.448Z,8.12
2019-04-06T05:13:05.652Z,8.12
2019-04-06T05:14:06.016Z,8.06
2019-04-06T05:15:05.212Z,8.00
2019-04-06T05:16:05.371Z,7.94
2019-04-06T05:17:05.684Z,7.94
2019-04-06T05:18:05.738Z,7.88
2019-04-06T05:19:05.942Z,7.81
2019-04-06T05:20:05.221Z,7.81
2019-04-06T05:21:05.486Z,7.75
2019-04-06T05:22:05.455Z,7.75
2019-04-06T05:23:05.617Z,7.69
2019-04-06T05:24:06.011Z,7.69
2019-04-06T05:25:05.563Z,7.69
2019-04-06T05:26:05.393Z,7.62
2019-04-06T05:27:05.687Z,7.62
2019-04-06T05:28:05.768Z,7.62
2019-04-06T05:29:05.845Z,7.62
2019-04-06T05:30:06.001Z,7.56
2019-04-06T05:31:05.400Z,7.56
2019-04-06T05:32:05.939Z,7.56
2019-04-06T05:33:06.030Z,7.50
2019-04-06T05:34:06.240Z,7.56
2019-04-06T05:35:05.217Z,7.62
2019-04-06T05:36:05.371Z,7.62
2019-04-06T05:37:05.589Z,7.56
2019-04-06T05:38:05.847Z,7.56
2019-04-06T05:39:05.767Z,7.50
2019-04-06T05:40:06.069Z,7.50
2019-04-06T05:41:05.182Z,7.50
2019-04-06T05:42:05.891Z,7.50
2019-04-06T05:43:05.607Z,7.62
2019-04-06T05:44:05.157Z,7.56
2019-04-06T05:45:05.372Z,7.56
2019-04-06T05:46:05.892Z,7.50
2019-04-06T05:47:06.012Z,7.50
2019-04-06T05:48:05.283Z,7.50
2019-04-06T05:49:05.761Z,7.44
2019-04-06T05:50:05.284Z,7.62
2019-04-06T05:51:05.194Z,7.81
2019-04-06T05:52:05.287Z,7.94
2019-04-06T05:53:05.716Z,7.94
2019-04-06T05:54:06.006Z,8.06
2019-04-06T05:55:05.126Z,8.19
2019-04-06T05:56:05.345Z,8.12
2019-04-06T05:57:05.878Z,8.06
2019-04-06T05:58:09.655Z,7.94
2019-04-06T05:59:05.206Z,7.88
2019-04-06T06:00:05.520Z,7.88
2019-04-06T06:01:05.755Z,7.81
2019-04-06T06:02:07.792Z,7.75
2019-04-06T06:03:05.931Z,7.75
2019-04-06T06:04:05.673Z,7.69
2019-04-06T06:05:05.929Z,7.69
2019-04-06T06:06:05.765Z,7.62
2019-04-06T06:07:05.841Z,7.62
2019-04-06T06:08:06.033Z,7.56
2019-04-06T06:09:06.021Z,7.56
2019-04-06T06:10:05.292Z,7.56
2019-04-06T06:11:06.079Z,7.50
2019-04-06T06:12:06.092Z,7.50
2019-04-06T06:13:05.206Z,7.50
2019-04-06T06:14:05.715Z,7.50
2019-04-06T06:15:05.696Z,7.50
2019-04-06T06:16:05.841Z,7.44
2019-04-06T06:17:05.675Z,7.44
2019-04-06T06:18:05.790Z,7.50
2019-04-06T06:19:05.916Z,7.81
2019-04-06T06:20:05.210Z,8.06
2019-04-06T06:21:05.497Z,8.19
2019-04-06T06:22:06.006Z,8.31
2019-04-06T06:23:05.592Z,8.44
2019-04-06T06:24:05.125Z,8.56
2019-04-06T06:25:05.302Z,8.62
2019-04-06T06:26:05.436Z,8.56
2019-04-06T06:27:05.697Z,8.44
2019-04-06T06:28:14.110Z,8.38
2019-04-06T06:29:05.927Z,8.25
2019-04-06T06:30:06.115Z,8.19
2019-04-06T06:31:05.060Z,8.12
2019-04-06T06:32:06.108Z,8.12
2019-04-06T06:33:05.186Z,8.06
2019-04-06T06:34:05.384Z,8.00
2019-04-06T06:35:05.700Z,8.00
2019-04-06T06:36:05.944Z,7.94
2019-04-06T06:37:06.009Z,7.94
2019-04-06T06:38:05.208Z,7.88
2019-04-06T06:39:05.450Z,8.00
2019-04-06T06:40:05.539Z,8.00
2019-04-06T06:41:05.847Z,7.94
2019-04-06T06:42:06.147Z,7.88
2019-04-06T06:43:05.206Z,7.88
2019-04-06T06:44:05.157Z,7.88
2019-04-06T06:45:05.911Z,7.88
2019-04-06T06:46:05.213Z,7.88
2019-04-06T06:47:05.594Z,7.88
2019-04-06T06:48:05.276Z,7.88
2019-04-06T06:49:05.844Z,7.88
2019-04-06T06:50:05.649Z,7.88
2019-04-06T06:51:05.989Z,8.12
2019-04-06T06:52:05.276Z,8.31
2019-04-06T06:53:05.711Z,8.38
2019-04-06T06:54:07.263Z,8.62
2019-04-06T06:55:05.771Z,8.75
2019-04-06T06:56:05.919Z,8.75
2019-04-06T06:57:05.127Z,8.69
2019-04-06T06:58:05.120Z,8.69
2019-04-06T06:59:05.396Z,8.69
2019-04-06T07:00:05.448Z,8.88
2019-04-06T07:01:05.218Z,8.94
2019-04-06T07:02:06.008Z,8.88
2019-04-06T07:03:05.948Z,8.88
2019-04-06T07:04:05.979Z,9.00
2019-04-06T07:05:05.799Z,9.38
2019-04-06T07:06:06.072Z,9.56
2019-04-06T07:07:05.470Z,9.75
2019-04-06T07:08:05.699Z,9.81
2019-04-06T07:09:06.112Z,9.69
2019-04-06T07:10:06.207Z,9.69
2019-04-06T07:11:05.992Z,9.62
2019-04-06T07:12:05.033Z,9.50
2019-04-06T07:13:05.285Z,9.44
2019-04-06T07:14:06.098Z,9.44
2019-04-06T07:15:05.188Z,9.38
2019-04-06T07:16:05.865Z,9.31
2019-04-06T07:17:05.904Z,9.31
2019-04-06T07:18:05.701Z,9.31
2019-04-06T07:19:05.847Z,9.31
2019-04-06T07:20:06.018Z,9.44
2019-04-06T07:21:05.282Z,9.56
2019-04-06T07:22:05.860Z,9.69
2019-04-06T07:23:05.918Z,9.94
2019-04-06T07:24:06.167Z,10.12
2019-04-06T07:25:05.314Z,10.25
2019-04-06T07:26:05.754Z,10.38
2019-04-06T07:27:05.934Z,10.50
2019-04-06T07:28:05.212Z,10.50
2019-04-06T07:29:05.980Z,10.50
2019-04-06T07:30:05.307Z,10.44
2019-04-06T07:31:05.214Z,10.38
2019-04-06T07:32:05.492Z,10.31
2019-04-06T07:33:05.729Z,10.31
2019-04-06T07:34:06.203Z,10.38
2019-04-06T07:35:05.128Z,10.50
2019-04-06T07:36:05.387Z,10.62
2019-04-06T07:37:05.880Z,10.88
2019-04-06T07:38:05.936Z,10.94
2019-04-06T07:39:05.525Z,11.00
2019-04-06T07:40:05.683Z,11.00
2019-04-06T07:41:06.271Z,11.06
2019-04-06T07:42:05.201Z,11.12
2019-04-06T07:43:05.455Z,11.06
2019-04-06T07:44:06.023Z,11.12
2019-04-06T07:45:06.004Z,11.19
2019-04-06T07:46:05.223Z,11.25
2019-04-06T07:47:06.152Z,11.31
2019-04-06T07:48:05.345Z,11.38
2019-04-06T07:49:08.953Z,11.44
2019-04-06T07:50:05.936Z,11.56
2019-04-06T07:51:05.231Z,11.75
2019-04-06T07:52:05.688Z,11.88
2019-04-06T07:53:05.853Z,11.88
2019-04-06T07:54:05.237Z,12.00
2019-04-06T07:55:05.430Z,12.06
2019-04-06T07:56:05.608Z,12.19
2019-04-06T07:57:05.219Z,12.25
2019-04-06T07:58:05.625Z,12.31
2019-04-06T07:59:05.824Z,12.38
2019-04-06T08:00:06.078Z,12.56
2019-04-06T08:01:05.283Z,12.56
2019-04-06T08:02:05.694Z,12.69
2019-04-06T08:03:05.674Z,12.69
2019-04-06T08:04:05.431Z,12.75
2019-04-06T08:05:05.827Z,12.81
2019-04-06T08:06:05.309Z,13.12
2019-04-06T08:07:05.307Z,13.12
2019-04-06T08:08:05.767Z,13.25
2019-04-06T08:09:05.866Z,13.31
2019-04-06T08:10:05.332Z,13.44
2019-04-06T08:11:05.846Z,13.56
2019-04-06T08:12:05.932Z,13.62
2019-04-06T08:13:05.300Z,13.69
2019-04-06T08:14:05.833Z,13.69
2019-04-06T08:15:07.140Z,13.62
2019-04-06T08:16:05.857Z,13.56
2019-04-06T08:17:05.823Z,13.38
2019-04-06T08:18:05.301Z,13.31
2019-04-06T08:19:05.360Z,13.25
2019-04-06T08:20:05.211Z,13.19
2019-04-06T08:21:05.438Z,13.12
2019-04-06T08:22:05.216Z,13.06
2019-04-06T08:23:05.515Z,13.12
2019-04-06T08:24:06.592Z,13.19
2019-04-06T08:25:05.828Z,13.31
2019-04-06T08:26:05.201Z,13.31
2019-04-06T08:27:05.855Z,13.31
2019-04-06T08:28:05.301Z,13.38
2019-04-06T08:29:05.696Z,13.44
2019-04-06T08:30:05.851Z,13.50
2019-04-06T08:31:05.381Z,13.62
2019-04-06T08:32:06.017Z,13.69
2019-04-06T08:33:05.266Z,13.88
2019-04-06T08:34:06.036Z,13.94
2019-04-06T08:35:05.291Z,14.00
2019-04-06T08:36:05.458Z,14.06
2019-04-06T08:37:05.222Z,14.12
2019-04-06T08:38:05.818Z,14.25
2019-04-06T08:39:05.295Z,14.25
2019-04-06T08:40:05.704Z,14.38
2019-04-06T08:41:05.148Z,14.38
2019-04-06T08:42:05.363Z,14.31
2019-04-06T08:43:05.070Z,14.31
2019-04-06T08:44:05.379Z,14.31
2019-04-06T08:45:05.653Z,14.31
2019-04-06T08:46:05.850Z,14.38
2019-04-06T08:47:05.461Z,14.31
2019-04-06T08:48:05.595Z,14.31
2019-04-06T08:49:05.761Z,14.25
2019-04-06T08:50:05.970Z,14.25
2019-04-06T08:51:05.449Z,14.31
2019-04-06T08:52:05.121Z,14.31
2019-04-06T08:53:05.566Z,14.38
2019-04-06T08:54:05.791Z,14.44
2019-04-06T08:55:07.185Z,14.44
2019-04-06T08:56:05.679Z,14.50
2019-04-06T08:57:06.164Z,14.56
2019-04-06T08:58:05.550Z,14.69
2019-04-06T08:59:11.158Z,14.81
2019-04-06T09:00:06.094Z,14.88
2019-04-06T09:01:05.838Z,15.06
2019-04-06T09:02:05.848Z,15.06
2019-04-06T09:03:05.215Z,15.00
2019-04-06T09:04:05.539Z,15.00
2019-04-06T09:05:05.685Z,15.00
2019-04-06T09:06:05.727Z,14.94
2019-04-06T09:07:05.196Z,14.88
2019-04-06T09:08:05.842Z,14.88
2019-04-06T09:09:05.506Z,14.94
2019-04-06T09:10:05.775Z,15.00
2019-04-06T09:11:05.930Z,15.06
2019-04-06T09:12:05.113Z,15.12
2019-04-06T09:13:05.529Z,15.12
2019-04-06T09:14:05.941Z,15.25
2019-04-06T09:15:06.001Z,15.25
2019-04-06T09:16:05.219Z,15.31
2019-04-06T09:17:05.764Z,15.38
2019-04-06T09:18:05.845Z,15.38
2019-04-06T09:19:05.250Z,15.38
2019-04-06T09:20:05.523Z,15.31
2019-04-06T09:21:05.054Z,15.31
2019-04-06T09:22:05.448Z,15.31
2019-04-06T09:23:05.317Z,15.25
2019-04-06T09:24:05.514Z,15.25
2019-04-06T09:25:05.902Z,15.25
2019-04-06T09:26:05.700Z,15.25
2019-04-06T09:27:05.854Z,15.25
2019-04-06T09:28:05.116Z,15.25
2019-04-06T09:29:05.463Z,15.31
2019-04-06T09:30:05.909Z,15.38
2019-04-06T09:31:05.344Z,15.44
2019-04-06T09:32:05.524Z,15.56
2019-04-06T09:33:06.026Z,15.62
2019-04-06T09:34:05.485Z,15.56
2019-04-06T09:35:06.048Z,15.62
2019-04-06T09:36:05.192Z,15.62
2019-04-06T09:37:05.432Z,15.62
2019-04-06T09:38:05.851Z,15.56
2019-04-06T09:39:05.850Z,15.62
2019-04-06T09:40:05.972Z,15.56
2019-04-06T09:41:05.194Z,15.62
2019-04-06T09:42:05.874Z,15.62
2019-04-06T09:43:06.007Z,15.75
2019-04-06T09:44:05.615Z,15.88
2019-04-06T09:45:05.812Z,15.88
2019-04-06T09:46:06.126Z,15.94
2019-04-06T09:47:06.912Z,15.94
2019-04-06T09:48:05.334Z,16.00
2019-04-06T09:49:05.931Z,15.94
2019-04-06T09:50:05.130Z,15.94
2019-04-06T09:51:05.107Z,16.00
2019-04-06T09:52:05.866Z,16.06
2019-04-06T09:53:05.480Z,16.19
2019-04-06T09:54:06.858Z,16.25
2019-04-06T09:55:05.441Z,16.31
2019-04-06T09:56:05.688Z,16.25
2019-04-06T09:57:05.822Z,16.25
2019-04-06T09:58:05.934Z,16.12
2019-04-06T09:59:06.007Z,16.06
2019-04-06T10:00:05.377Z,16.06
2019-04-06T10:01:05.866Z,16.06
2019-04-06T10:02:06.003Z,16.12
2019-04-06T10:03:05.655Z,16.19
2019-04-06T10:04:05.633Z,16.19
2019-04-06T10:05:05.639Z,16.25
2019-04-06T10:06:05.758Z,16.19
2019-04-06T10:07:05.328Z,16.25
2019-04-06T10:08:05.922Z,16.25
2019-04-06T10:09:06.050Z,16.25
2019-04-06T10:10:06.014Z,16.25
2019-04-06T10:11:05.048Z,16.19
2019-04-06T10:12:05.456Z,16.25
2019-04-06T10:13:05.477Z,16.25
2019-04-06T10:14:05.853Z,16.38
2019-04-06T10:15:06.122Z,16.44
2019-04-06T10:16:05.970Z,16.50
2019-04-06T10:17:05.617Z,16.56
2019-04-06T10:18:06.041Z,16.56
2019-04-06T10:19:05.934Z,16.62
2019-04-06T10:20:05.921Z,16.56
2019-04-06T10:21:05.157Z,16.50
2019-04-06T10:22:05.368Z,16.44
2019-04-06T10:23:05.684Z,16.38
2019-04-06T10:24:05.935Z,16.31
2019-04-06T10:25:05.854Z,16.31
2019-04-06T10:26:05.770Z,16.31
2019-04-06T10:27:06.018Z,16.31
2019-04-06T10:28:05.307Z,16.31
2019-04-06T10:29:05.943Z,16.44
2019-04-06T10:30:05.690Z,16.44
2019-04-06T10:31:05.930Z,16.50
2019-04-06T10:32:05.416Z,16.69
2019-04-06T10:33:05.702Z,16.75
2019-04-06T10:34:05.880Z,16.81
2019-04-06T10:35:05.129Z,16.81
2019-04-06T10:36:05.680Z,16.81
2019-04-06T10:37:05.932Z,16.81
2019-04-06T10:38:05.332Z,16.81
2019-04-06T10:39:05.595Z,16.81
2019-04-06T10:40:05.765Z,16.75
2019-04-06T10:41:05.124Z,16.69
2019-04-06T10:42:05.306Z,16.75
2019-04-06T10:43:05.445Z,16.88
2019-04-06T10:44:05.366Z,17.06
2019-04-06T10:45:05.587Z,17.38
2019-04-06T10:46:05.864Z,17.44
2019-04-06T10:47:06.028Z,17.69
2019-04-06T10:48:05.217Z,17.81
2019-04-06T10:49:05.636Z,17.88
2019-04-06T10:50:06.104Z,17.81
2019-04-06T10:51:06.004Z,17.69
2019-04-06T10:52:05.216Z,17.75
2019-04-06T10:53:05.685Z,17.69
2019-04-06T10:54:05.391Z,17.62
2019-04-06T10:55:05.710Z,17.56
2019-04-06T10:56:05.691Z,17.56
2019-04-06T10:57:05.262Z,17.56
2019-04-06T10:58:05.286Z,17.50
2019-04-06T10:59:05.930Z,17.50
2019-04-06T11:00:05.339Z,17.44
2019-04-06T11:01:05.839Z,17.38
2019-04-06T11:02:05.217Z,17.38
2019-04-06T11:03:05.525Z,17.38
2019-04-06T11:04:05.776Z,17.31
2019-04-06T11:05:06.007Z,17.38
2019-04-06T11:06:05.718Z,17.44
2019-04-06T11:07:05.923Z,17.50
2019-04-06T11:08:06.016Z,17.56
2019-04-06T11:09:05.349Z,17.69
2019-04-06T11:10:05.618Z,17.88
2019-04-06T11:11:05.571Z,17.81
2019-04-06T11:12:05.494Z,17.88
2019-04-06T11:13:06.000Z,18.00
2019-04-06T11:14:05.367Z,18.06
2019-04-06T11:15:05.599Z,18.19
2019-04-06T11:16:05.283Z,18.06
2019-04-06T11:17:05.697Z,18.06
2019-04-06T11:18:05.124Z,18.12
2019-04-06T11:19:06.866Z,18.25
2019-04-06T11:20:05.288Z,18.25
2019-04-06T11:21:05.908Z,18.31
2019-04-06T11:22:05.994Z,18.31
2019-04-06T11:23:05.515Z,18.31
2019-04-06T11:24:06.204Z,18.25
2019-04-06T11:25:06.078Z,18.19
2019-04-06T11:26:05.380Z,18.12
2019-04-06T11:27:05.517Z,18.06
2019-04-06T11:28:05.139Z,18.12
2019-04-06T11:29:05.369Z,18.12
2019-04-06T11:30:12.725Z,18.06
2019-04-06T11:31:05.160Z,18.06
2019-04-06T11:32:05.455Z,18.06
2019-04-06T11:33:06.083Z,18.12
2019-04-06T11:34:05.204Z,18.25
2019-04-06T11:35:05.856Z,18.44
2019-04-06T11:36:05.775Z,18.56
2019-04-06T11:37:06.005Z,18.62
2019-04-06T11:38:06.182Z,18.75
2019-04-06T11:39:05.542Z,18.75
2019-04-06T11:40:05.681Z,18.75
2019-04-06T11:41:05.851Z,18.69
2019-04-06T11:42:05.951Z,18.62
2019-04-06T11:43:05.991Z,18.56
2019-04-06T11:44:05.125Z,18.56
2019-04-06T11:45:05.670Z,18.50
2019-04-06T11:46:05.851Z,18.50
2019-04-06T11:47:05.605Z,18.44
2019-04-06T11:48:05.484Z,18.44
2019-04-06T11:49:05.714Z,18.38
2019-04-06T11:50:05.121Z,18.38
2019-04-06T11:51:05.394Z,18.38
2019-04-06T11:52:05.693Z,18.38
2019-04-06T11:53:06.000Z,18.38
2019-04-06T11:54:05.152Z,18.38
2019-04-06T11:55:05.687Z,18.44
2019-04-06T11:56:05.298Z,18.44
2019-04-06T11:57:05.537Z,18.50
2019-04-06T11:58:05.944Z,18.50
2019-04-06T11:59:05.212Z,18.56
2019-04-06T12:00:05.557Z,18.56
2019-04-06T12:01:05.570Z,18.62
2019-04-06T12:02:05.891Z,18.62
2019-04-06T12:03:05.614Z,18.69
2019-04-06T12:04:06.034Z,18.75
2019-04-06T12:05:05.539Z,18.69
2019-04-06T12:06:05.924Z,18.69
2019-04-06T12:07:05.719Z,18.62
2019-04-06T12:08:05.319Z,18.56
2019-04-06T12:09:05.575Z,18.44
2019-04-06T12:10:06.806Z,18.44
2019-04-06T12:11:05.125Z,18.38
2019-04-06T12:12:05.621Z,18.31
2019-04-06T12:13:05.852Z,18.31
2019-04-06T12:14:06.203Z,18.31
2019-04-06T12:15:05.536Z,18.31
2019-04-06T12:16:05.531Z,18.25
2019-04-06T12:17:06.674Z,18.25
2019-04-06T12:18:05.846Z,18.31
2019-04-06T12:19:06.103Z,18.31
2019-04-06T12:20:05.225Z,18.31
2019-04-06T12:21:05.750Z,18.31
2019-04-06T12:22:05.928Z,18.31
2019-04-06T12:23:05.306Z,18.31
2019-04-06T12:24:05.299Z,18.31
2019-04-06T12:25:05.707Z,18.38
2019-04-06T12:26:05.885Z,18.44
2019-04-06T12:27:06.283Z,18.44
2019-04-06T12:28:05.442Z,18.44
2019-04-06T12:29:05.310Z,18.44
2019-04-06T12:30:05.550Z,18.44
2019-04-06T12:31:06.022Z,18.44
2019-04-06T12:32:05.219Z,18.38
2019-04-06T12:33:05.371Z,18.38
2019-04-06T12:34:05.520Z,18.38
2019-04-06T12:35:05.284Z,18.56
2019-04-06T12:36:05.850Z,18.62
2019-04-06T12:37:05.368Z,18.62
2019-04-06T12:38:05.856Z,18.62
2019-04-06T12:39:05.986Z,18.69
2019-04-06T12:40:05.213Z,18.81
2019-04-06T12:41:05.431Z,18.81
2019-04-06T12:42:05.531Z,18.75
2019-04-06T12:43:06.046Z,18.75
2019-04-06T12:44:05.613Z,18.69
2019-04-06T12:45:06.003Z,18.69
2019-04-06T12:46:05.212Z,18.62
2019-04-06T12:47:05.391Z,18.62
2019-04-06T12:48:06.138Z,18.62
2019-04-06T12:49:05.710Z,18.62
2019-04-06T12:50:06.287Z,18.62
2019-04-06T12:51:05.277Z,18.62
2019-04-06T12:52:05.706Z,18.62
2019-04-06T12:53:05.922Z,18.56
2019-04-06T12:54:05.721Z,18.56
2019-04-06T12:55:05.199Z,18.50
2019-04-06T12:56:05.207Z,18.50
2019-04-06T12:57:06.351Z,18.50
2019-04-06T12:58:05.332Z,18.44
2019-04-06T12:59:05.547Z,18.44
2019-04-06T13:00:06.205Z,18.38
2019-04-06T13:01:05.473Z,18.44
2019-04-06T13:02:06.110Z,18.44
2019-04-06T13:03:05.200Z,18.38
2019-04-06T13:04:05.365Z,18.38
2019-04-06T13:05:05.847Z,18.38
2019-04-06T13:06:05.209Z,18.38